aviador You're here:

KGPT Decoded Metar

GULFPORT in MS, USA
Report Time2017-11-25 04:53:00
UTC Time2017-11-25 05:32:58
Flight Rules vfr VFR
WindCalm
Visibility9999 m
Phenomena:N/A
Clouds:N/A
Expected CloudBase > 800 ft AGL from Temp-Dew spread
CeilingNone
Temp05°C (ISA -10)
Dew Point03°C (87% RH)
AAT3.5°C
QNH1016 hPa
Density Alt-1,152 ft
Elevation46 ft
Report Wrong Elevation
Raw Report
KGPT 250453Z AUTO 00000KT 10SM CLR 05/03 A3000 RMK AO2 SLP158
T00500033=

Extra information for KGPT:More info

Metar Taf Metar & Taf Last 4 Metars F.Rules Stats Wind Profile Meteogram Temp Stats Airport Information Weather charts Add Link Nearby VenuesMetar ALERT Operation Metar Decoded Social comments

AIRNAV info for KGPT